Time;durP1;ratioP1;P1;durP2;ratioP2;P2;SDS_P1;SDS_P2;PMS_P1;PMS_P2;Temp;Humidity;BMP_temperature;BMP_pressure;BME280_temperature;BME280_humidity;BME280_pressure;Samples;Min_cycle;Max_cycle;Signal;HPM_P1;HPM_P2
2020/12/15 00:00:28;;;;;;;4.20;2.63;;;10.60;78.30;;;;;;5034203;28;20812;-73
2020/12/15 00:02:54;;;;;;;2.90;2.27;;;10.50;79.10;;;;;;5036642;28;20481;-74
2020/12/15 00:05:21;;;;;;;5.63;2.73;;;10.50;79.40;;;;;;5036579;28;20445;-73
2020/12/15 00:07:47;;;;;;;2.80;2.40;;;10.50;79.70;;;;;;5036580;28;20442;-73
2020/12/15 00:10:13;;;;;;;4.20;2.90;;;10.50;79.90;;;;;;5036237;28;20504;-73
2020/12/15 00:12:41;;;;;;;2.70;2.07;;;10.40;80.00;;;;;;5036088;28;20450;-73
2020/12/15 00:15:07;;;;;;;6.50;2.47;;;10.40;81.00;;;;;;5036393;28;20446;-73
2020/12/15 00:17:34;;;;;;;2.47;2.20;;;10.40;82.60;;;;;;5036343;28;20442;-73
2020/12/15 00:20:00;;;;;;;3.10;2.30;;;10.40;84.10;;;;;;5036155;28;20454;-73
2020/12/15 00:22:27;;;;;;;4.10;2.93;;;10.40;84.30;;;;;;5036189;28;20451;-74
2020/12/15 00:24:53;;;;;;;2.50;2.30;;;10.40;85.00;;;;;;5036255;28;20447;-73
2020/12/15 00:27:20;;;;;;;4.17;2.40;;;10.30;85.80;;;;;;5036090;28;20442;-73
2020/12/15 00:29:46;;;;;;;4.90;3.07;;;10.30;86.80;;;;;;5035870;28;20482;-73
2020/12/15 00:32:12;;;;;;;6.40;2.60;;;10.30;87.40;;;;;;5035671;28;20820;-73
2020/12/15 00:34:38;;;;;;;4.07;3.00;;;10.30;88.20;;;;;;5035922;28;20439;-73
2020/12/15 00:37:05;;;;;;;3.60;2.27;;;10.30;88.90;;;;;;5035662;28;20829;-73
2020/12/15 00:39:32;;;;;;;4.90;2.43;;;10.20;89.30;;;;;;5035712;28;20487;-73
2020/12/15 00:41:58;;;;;;;5.00;2.87;;;10.20;89.80;;;;;;5035623;28;20446;-73
2020/12/15 00:44:24;;;;;;;4.00;2.60;;;10.20;90.00;;;;;;5035643;28;20438;-73
2020/12/15 00:46:50;;;;;;;6.53;3.27;;;10.20;90.00;;;;;;5035630;28;20443;-73
2020/12/15 00:49:17;;;;;;;4.17;3.27;;;10.30;90.10;;;;;;5035336;28;20482;-73
2020/12/15 00:51:43;;;;;;;6.67;3.83;;;10.30;90.10;;;;;;5035217;28;20446;-73
2020/12/15 00:54:09;;;;;;;5.60;3.63;;;10.30;90.00;;;;;;5035469;28;20445;-73
2020/12/15 00:56:40;;;;;;;5.30;4.10;;;10.30;90.00;;;;;;5035385;28;20446;-73
2020/12/15 00:59:06;;;;;;;6.50;4.50;;;10.30;90.60;;;;;;5035377;28;20469;-73
2020/12/15 01:01:32;;;;;;;6.60;4.10;;;10.30;90.40;;;;;;5035364;28;20783;-73
2020/12/15 01:03:58;;;;;;;6.63;3.87;;;10.20;90.40;;;;;;5035285;28;20449;-73
2020/12/15 01:06:25;;;;;;;5.00;4.23;;;10.20;90.50;;;;;;5035307;28;20450;-73
2020/12/15 01:08:51;;;;;;;6.47;4.10;;;10.20;90.70;;;;;;5035177;28;20469;-73
2020/12/15 01:11:17;;;;;;;8.30;3.43;;;10.20;90.60;;;;;;5034783;28;20482;-73
2020/12/15 01:13:44;;;;;;;6.53;4.47;;;10.20;90.70;;;;;;5034621;28;20439;-73
2020/12/15 01:16:11;;;;;;;6.20;4.10;;;10.20;90.70;;;;;;5035111;28;20454;-73
2020/12/15 01:18:37;;;;;;;11.40;4.47;;;10.20;90.80;;;;;;5035080;28;20481;-73
2020/12/15 01:21:04;;;;;;;5.87;3.63;;;10.20;90.80;;;;;;5035068;28;20442;-73
2020/12/15 01:23:30;;;;;;;3.90;3.50;;;10.20;90.90;;;;;;5034856;28;20935;-73
2020/12/15 01:25:57;;;;;;;4.30;3.87;;;10.20;90.90;;;;;;5035011;28;20442;-73
2020/12/15 01:28:23;;;;;;;6.40;4.20;;;10.20;90.90;;;;;;5034960;28;20534;-73
2020/12/15 01:30:50;;;;;;;5.73;3.80;;;10.20;90.90;;;;;;5034775;28;20474;-73
2020/12/15 01:33:16;;;;;;;5.00;4.33;;;10.20;90.80;;;;;;5034761;28;20442;-73
2020/12/15 01:35:42;;;;;;;7.00;4.47;;;10.20;90.80;;;;;;5034383;28;20465;-73
2020/12/15 01:38:08;;;;;;;5.10;4.07;;;10.20;90.90;;;;;;5034594;28;20462;-73
2020/12/15 01:40:34;;;;;;;6.03;4.40;;;10.20;90.90;;;;;;5034679;28;20443;-73
2020/12/15 01:43:01;;;;;;;6.00;4.50;;;10.20;90.90;;;;;;5034898;28;20422;-73
2020/12/15 01:45:27;;;;;;;4.10;3.70;;;10.20;90.90;;;;;;5034495;28;20469;-73
2020/12/15 01:47:54;;;;;;;5.93;4.47;;;10.20;90.90;;;;;;5034450;28;20932;-73
2020/12/15 01:50:20;;;;;;;7.23;4.77;;;10.20;90.90;;;;;;5034399;28;20489;-73
2020/12/15 01:52:47;;;;;;;5.17;4.67;;;10.20;91.00;;;;;;5034612;28;20438;-73
2020/12/15 01:55:16;;;;;;;4.43;3.97;;;10.20;90.90;;;;;;5034466;28;20447;-73
2020/12/15 01:57:44;;;;;;;5.90;4.27;;;10.20;90.90;;;;;;5034467;28;20446;-73
2020/12/15 02:00:10;;;;;;;6.10;4.03;;;10.10;90.90;;;;;;5034216;28;20463;-73
2020/12/15 02:02:40;;;;;;;4.73;4.27;;;10.10;91.00;;;;;;5034403;28;20442;-73
2020/12/15 02:05:07;;;;;;;4.10;3.70;;;10.10;91.10;;;;;;5034148;28;20451;-73
2020/12/15 02:07:33;;;;;;;5.83;4.20;;;10.10;91.20;;;;;;5033816;28;20955;-73
2020/12/15 02:09:59;;;;;;;5.83;4.33;;;10.10;91.20;;;;;;5034009;28;20487;-73
2020/12/15 02:12:26;;;;;;;6.60;3.63;;;10.10;91.30;;;;;;5034215;28;20457;-73
2020/12/15 02:14:52;;;;;;;4.53;3.83;;;10.10;91.30;;;;;;5034314;28;20439;-74
2020/12/15 02:17:18;;;;;;;5.20;4.23;;;10.10;91.40;;;;;;5033968;28;20466;-73
2020/12/15 02:19:44;;;;;;;4.53;4.13;;;10.10;91.20;;;;;;5033890;28;20469;-73
2020/12/15 02:22:11;;;;;;;4.60;4.10;;;10.10;91.20;;;;;;5033928;28;20431;-73
2020/12/15 02:24:38;;;;;;;7.77;5.23;;;10.10;91.30;;;;;;5033700;28;20438;-73
2020/12/15 02:27:05;;;;;;;11.33;4.57;;;10.10;91.40;;;;;;5033791;28;20469;-73
2020/12/15 02:29:31;;;;;;;4.80;4.40;;;10.10;91.40;;;;;;5033673;28;20482;-73
2020/12/15 02:31:57;;;;;;;4.77;4.30;;;10.10;91.50;;;;;;5033501;28;20991;-73
2020/12/15 02:34:23;;;;;;;7.40;5.10;;;10.10;91.50;;;;;;5033714;28;20442;-73
2020/12/15 02:36:50;;;;;;;5.90;4.70;;;10.10;91.50;;;;;;5033393;28;20470;-73
2020/12/15 02:39:18;;;;;;;9.63;5.07;;;10.10;91.60;;;;;;5033650;28;20470;-73
2020/12/15 02:41:44;;;;;;;5.30;4.03;;;10.10;91.60;;;;;;5033342;28;20945;-73
2020/12/15 02:44:10;;;;;;;5.20;4.20;;;10.10;91.60;;;;;;5033554;28;20453;-73
2020/12/15 02:46:36;;;;;;;5.37;4.40;;;10.10;91.50;;;;;;5033513;28;20442;-73
2020/12/15 02:49:03;;;;;;;5.17;4.60;;;10.10;91.50;;;;;;5033117;28;21019;-73
2020/12/15 02:51:29;;;;;;;5.50;4.60;;;10.20;91.50;;;;;;5033427;28;20478;-73
2020/12/15 02:53:56;;;;;;;7.93;4.30;;;10.10;91.50;;;;;;5033456;28;20450;-73
2020/12/15 02:56:24;;;;;;;7.40;4.57;;;10.20;91.50;;;;;;5033495;28;20446;-73
2020/12/15 02:58:51;;;;;;;5.07;3.93;;;10.20;91.50;;;;;;5033349;28;20466;-73
2020/12/15 03:01:17;;;;;;;6.03;4.30;;;10.20;91.50;;;;;;5033116;28;20434;-73
2020/12/15 03:03:44;;;;;;;6.20;4.67;;;10.20;91.60;;;;;;5033439;28;20450;-73
2020/12/15 03:06:11;;;;;;;5.83;4.43;;;10.20;91.60;;;;;;5033480;28;20446;-72
2020/12/15 03:08:37;;;;;;;6.90;5.50;;;10.10;91.90;;;;;;5033328;28;20462;-73
2020/12/15 03:11:05;;;;;;;6.97;5.40;;;10.10;91.50;;;;;;5033258;28;20474;-73
2020/12/15 03:13:33;;;;;;;4.97;4.40;;;10.10;91.60;;;;;;5033577;28;20442;-73
2020/12/15 03:15:59;;;;;;;6.50;4.97;;;10.10;91.70;;;;;;5033304;28;20434;-73
2020/12/15 03:18:25;;;;;;;4.40;4.10;;;10.10;91.70;;;;;;5033460;28;20804;-73
2020/12/15 03:20:52;;;;;;;6.37;5.77;;;10.00;91.60;;;;;;5033247;28;20422;-73
2020/12/15 03:23:20;;;;;;;5.70;5.20;;;10.00;91.50;;;;;;5033683;28;20516;-73
2020/12/15 03:25:46;;;;;;;7.77;5.40;;;10.00;91.60;;;;;;5033157;28;20806;-73
2020/12/15 03:28:13;;;;;;;6.10;5.50;;;10.00;91.70;;;;;;5033153;28;20790;-73
2020/12/15 03:30:40;;;;;;;8.77;5.27;;;10.00;91.70;;;;;;5032764;28;20988;-73
2020/12/15 03:33:06;;;;;;;5.63;5.03;;;10.00;91.70;;;;;;5033135;28;20438;-73
2020/12/15 03:35:32;;;;;;;6.47;5.13;;;10.00;91.80;;;;;;5033946;28;20839;-73
2020/12/15 03:37:59;;;;;;;5.63;5.03;;;10.00;91.90;;;;;;5037022;28;20427;-73
2020/12/15 03:40:25;;;;;;;6.53;5.23;;;10.00;91.90;;;;;;5036876;28;20807;-73
2020/12/15 03:42:52;;;;;;;6.47;5.40;;;10.00;91.90;;;;;;5036864;28;20446;-73
2020/12/15 03:45:18;;;;;;;6.30;5.10;;;10.00;91.90;;;;;;5036952;28;20446;-73
2020/12/15 03:47:45;;;;;;;7.40;5.53;;;10.00;91.90;;;;;;5036858;28;20449;-73
2020/12/15 03:50:11;;;;;;;7.50;5.67;;;10.00;91.90;;;;;;5036611;28;20581;-73
2020/12/15 03:52:38;;;;;;;8.43;6.27;;;10.00;92.00;;;;;;5036681;28;20624;-73
2020/12/15 03:55:04;;;;;;;5.77;4.77;;;10.00;92.00;;;;;;5036658;28;20446;-73
2020/12/15 03:57:31;;;;;;;7.33;5.23;;;10.00;92.00;;;;;;5036629;28;20438;-73
2020/12/15 03:59:57;;;;;;;7.17;5.40;;;9.90;92.50;;;;;;5036518;28;20462;-73
2020/12/15 04:02:23;;;;;;;9.30;6.03;;;9.90;92.60;;;;;;5036518;28;20438;-73
2020/12/15 04:04:51;;;;;;;6.03;5.53;;;9.90;92.60;;;;;;5036548;28;20450;-73
2020/12/15 04:07:17;;;;;;;7.77;5.60;;;10.00;92.10;;;;;;5036763;28;20441;-73
2020/12/15 04:09:44;;;;;;;7.60;5.83;;;9.90;92.60;;;;;;5036250;28;20845;-73
2020/12/15 04:12:11;;;;;;;7.67;5.13;;;9.90;92.60;;;;;;5036365;28;20543;-73
2020/12/15 04:14:38;;;;;;;6.20;5.13;;;9.90;92.60;;;;;;5036374;28;20431;-73
2020/12/15 04:17:04;;;;;;;8.00;5.90;;;9.90;92.60;;;;;;5036383;28;20445;-73
2020/12/15 04:19:30;;;;;;;7.40;5.63;;;10.00;92.10;;;;;;5036382;28;20470;-73
2020/12/15 04:21:57;;;;;;;6.73;6.13;;;9.90;92.70;;;;;;5035924;28;20936;-73
2020/12/15 04:24:23;;;;;;;10.20;6.67;;;9.90;92.70;;;;;;5036472;28;20450;-73
2020/12/15 04:26:49;;;;;;;6.43;5.60;;;9.90;92.80;;;;;;5035868;28;20960;-73
2020/12/15 04:29:16;;;;;;;6.60;5.60;;;9.90;93.20;;;;;;5035989;28;20467;-73
2020/12/15 04:31:42;;;;;;;6.80;6.10;;;9.90;92.80;;;;;;5036213;28;20469;-73
2020/12/15 04:34:08;;;;;;;7.50;6.07;;;9.90;92.80;;;;;;5035991;28;20490;-73
2020/12/15 04:36:34;;;;;;;10.80;6.17;;;9.90;92.80;;;;;;5035542;28;20461;-73
2020/12/15 04:39:01;;;;;;;11.33;6.33;;;9.90;92.80;;;;;;5035771;28;20540;-73
2020/12/15 04:41:27;;;;;;;8.93;6.00;;;9.90;92.90;;;;;;5035790;28;20447;-73
2020/12/15 04:43:54;;;;;;;6.43;5.83;;;9.90;92.90;;;;;;5035775;28;20451;-73
2020/12/15 04:46:22;;;;;;;6.27;5.53;;;9.90;92.90;;;;;;5035728;28;20451;-73
2020/12/15 04:49:01;;;;;;;6.30;5.60;;;10.00;92.30;;;;;;5035460;28;20498;-73
2020/12/15 04:51:28;;;;;;;6.33;5.73;;;10.00;92.40;;;;;;5035592;28;20462;-73
2020/12/15 04:53:55;;;;;;;8.40;5.67;;;10.00;92.30;;;;;;5035587;28;20496;-73
2020/12/15 04:56:30;;;;;;;6.63;5.93;;;10.00;92.30;;;;;;5035226;28;21030;-73
2020/12/15 04:58:58;;;;;;;9.83;7.10;;;10.00;92.30;;;;;;5035457;28;20473;-73
2020/12/15 05:01:25;;;;;;;7.00;5.60;;;10.00;92.20;;;;;;5035417;28;20788;-73
2020/12/15 05:03:52;;;;;;;6.37;5.77;;;10.00;92.20;;;;;;5035413;28;20438;-73
2020/12/15 05:06:27;;;;;;;6.70;5.77;;;10.00;92.20;;;;;;5035089;28;20538;-73
2020/12/15 05:08:54;;;;;;;7.60;6.00;;;10.00;92.20;;;;;;5035302;28;20489;-73
2020/12/15 05:11:20;;;;;;;9.90;8.60;;;10.00;92.20;;;;;;5035192;28;20486;-73
2020/12/15 05:13:47;;;;;;;7.43;6.67;;;10.00;92.60;;;;;;5035228;28;20465;-73
2020/12/15 05:16:13;;;;;;;7.53;6.30;;;10.00;92.30;;;;;;5035161;28;20458;-73
2020/12/15 05:18:39;;;;;;;7.67;5.43;;;10.00;92.30;;;;;;5034766;28;20489;-73
2020/12/15 05:21:13;;;;;;;7.73;6.80;;;10.00;92.30;;;;;;5035074;28;20439;-73
2020/12/15 05:23:50;;;;;;;7.47;6.77;;;10.00;92.30;;;;;;5034979;28;20446;-73
2020/12/15 05:26:23;;;;;;;8.07;7.27;;;10.00;92.40;;;;;;5035022;28;20445;-73
2020/12/15 05:29:02;;;;;;;9.37;7.13;;;10.00;92.40;;;;;;5034808;28;20474;-73
2020/12/15 05:31:28;;;;;;;8.50;7.60;;;10.00;92.40;;;;;;5034800;28;20463;-73
2020/12/15 05:33:57;;;;;;;9.80;8.00;;;9.90;92.90;;;;;;5034816;28;20450;-73
2020/12/15 05:36:23;;;;;;;7.57;6.87;;;10.00;92.50;;;;;;5034395;28;20473;-73
2020/12/15 05:39:01;;;;;;;7.93;6.83;;;10.00;92.50;;;;;;5034675;28;20469;-73
2020/12/15 05:41:28;;;;;;;9.07;6.67;;;10.00;92.60;;;;;;5034414;28;20896;-73
2020/12/15 05:43:57;;;;;;;8.83;6.50;;;10.00;92.60;;;;;;5034629;28;20484;-73
2020/12/15 05:46:28;;;;;;;7.30;6.47;;;10.00;92.60;;;;;;5034613;28;20485;-73
2020/12/15 05:49:01;;;;;;;12.03;7.07;;;10.00;92.60;;;;;;5034456;28;20478;-73
2020/12/15 05:51:37;;;;;;;9.40;6.10;;;10.00;92.60;;;;;;5034447;28;20517;-73
2020/12/15 05:54:07;;;;;;;7.67;6.27;;;10.00;92.70;;;;;;5034467;28;20438;-73
2020/12/15 05:56:35;;;;;;;8.93;6.20;;;10.00;92.70;;;;;;5034591;28;20434;-72
2020/12/15 05:59:11;;;;;;;9.97;5.97;;;10.00;92.70;;;;;;5033805;28;20467;-73
2020/12/15 06:01:38;;;;;;;8.03;6.20;;;10.00;92.70;;;;;;5034311;28;20431;-73
2020/12/15 06:04:04;;;;;;;7.50;6.70;;;10.00;92.70;;;;;;5034289;28;20450;-73
2020/12/15 06:06:32;;;;;;;7.70;6.90;;;10.00;92.70;;;;;;5034183;28;20447;-73
2020/12/15 06:08:59;;;;;;;9.07;6.27;;;10.00;92.80;;;;;;5034106;28;20585;-73
2020/12/15 06:11:32;;;;;;;6.50;5.90;;;10.00;92.70;;;;;;5033802;28;20481;-73
2020/12/15 06:13:59;;;;;;;7.37;5.90;;;10.00;92.80;;;;;;5034209;28;20492;-73
2020/12/15 06:16:25;;;;;;;9.23;6.40;;;10.00;92.80;;;;;;5034095;28;20457;-73
2020/12/15 06:18:52;;;;;;;9.60;5.30;;;10.00;92.80;;;;;;5033916;28;20466;-73
2020/12/15 06:21:19;;;;;;;9.47;7.00;;;10.00;92.90;;;;;;5033751;28;20450;-73
2020/12/15 06:23:45;;;;;;;7.70;6.40;;;10.00;92.90;;;;;;5033577;28;20987;-73
2020/12/15 06:26:11;;;;;;;9.40;6.20;;;10.00;92.90;;;;;;5033527;28;20820;-73
2020/12/15 06:28:37;;;;;;;7.87;6.30;;;10.00;92.90;;;;;;5034004;28;20471;-73
2020/12/15 06:31:03;;;;;;;6.37;5.80;;;10.10;93.00;;;;;;5033789;28;20844;-73
2020/12/15 06:33:36;;;;;;;8.27;6.03;;;10.10;93.00;;;;;;5033836;28;20500;-73
2020/12/15 06:36:03;;;;;;;11.13;5.90;;;10.10;93.00;;;;;;5033240;28;20940;-73
2020/12/15 06:38:29;;;;;;;6.20;5.13;;;10.10;93.00;;;;;;5033584;28;20463;-73
2020/12/15 06:40:55;;;;;;;8.10;6.23;;;10.10;93.00;;;;;;5033985;28;20451;-73
2020/12/15 06:43:25;;;;;;;9.00;5.63;;;10.10;93.10;;;;;;5033640;28;20462;-73
2020/12/15 06:46:03;;;;;;;6.47;5.20;;;10.10;93.10;;;;;;5033623;28;20431;-73
2020/12/15 06:48:30;;;;;;;7.93;6.60;;;10.10;93.10;;;;;;5033337;28;20466;-73
2020/12/15 06:50:56;;;;;;;9.17;6.10;;;10.10;93.20;;;;;;5033764;28;20474;-73
2020/12/15 06:53:23;;;;;;;7.00;6.40;;;10.10;93.50;;;;;;5033572;28;20451;-73
2020/12/15 06:55:58;;;;;;;7.17;6.47;;;10.10;93.10;;;;;;5033531;28;20457;-73
2020/12/15 06:58:24;;;;;;;7.97;6.67;;;10.10;93.10;;;;;;5033476;28;20453;-73
2020/12/15 07:00:50;;;;;;;8.27;5.80;;;10.10;93.10;;;;;;5033646;28;20445;-73
2020/12/15 07:03:17;;;;;;;6.70;5.67;;;10.10;93.20;;;;;;5033608;28;20434;-73
2020/12/15 07:05:44;;;;;;;6.90;6.20;;;10.10;93.10;;;;;;5033515;28;20478;-73
2020/12/15 07:08:12;;;;;;;12.30;7.83;;;10.10;93.00;;;;;;5033302;28;20447;-73
2020/12/15 07:10:41;;;;;;;6.90;6.10;;;10.10;93.10;;;;;;5034353;28;20485;-73
2020/12/15 07:13:08;;;;;;;7.40;6.70;;;10.10;93.20;;;;;;5037460;28;20504;-73
2020/12/15 07:15:35;;;;;;;7.60;6.47;;;10.10;93.20;;;;;;5037120;28;20942;-73
2020/12/15 07:18:03;;;;;;;10.13;6.57;;;10.10;93.10;;;;;;5037342;28;20480;-73
2020/12/15 07:20:29;;;;;;;7.17;5.90;;;10.10;93.10;;;;;;5037333;28;20466;-73
2020/12/15 07:22:55;;;;;;;7.37;6.67;;;10.10;93.10;;;;;;5037296;28;20504;-73
2020/12/15 07:25:22;;;;;;;7.60;6.40;;;10.10;93.10;;;;;;5037266;28;20848;-73
2020/12/15 07:27:49;;;;;;;6.77;5.90;;;10.10;93.10;;;;;;5037196;28;20442;-73
2020/12/15 07:30:18;;;;;;;9.40;5.93;;;10.20;93.20;;;;;;5037026;28;20483;-73
2020/12/15 07:32:45;;;;;;;6.57;5.33;;;10.20;93.20;;;;;;5037168;28;20423;-73
2020/12/15 07:35:13;;;;;;;11.40;7.10;;;10.20;93.30;;;;;;5037021;28;20533;-73
2020/12/15 07:37:41;;;;;;;7.27;6.17;;;10.20;93.30;;;;;;5036755;28;20966;-73
2020/12/15 07:40:09;;;;;;;10.83;7.53;;;10.20;93.30;;;;;;5036921;28;20462;-73
2020/12/15 07:42:36;;;;;;;10.17;6.43;;;10.20;93.30;;;;;;5036927;28;20529;-73
2020/12/15 07:45:06;;;;;;;8.07;7.00;;;10.20;93.30;;;;;;5036855;28;20454;-73
2020/12/15 07:47:39;;;;;;;7.30;6.30;;;10.20;93.30;;;;;;5036523;28;20897;-73
2020/12/15 07:50:05;;;;;;;7.40;6.47;;;10.20;93.30;;;;;;5036411;28;21002;-73
2020/12/15 07:52:33;;;;;;;10.80;7.80;;;10.20;93.20;;;;;;5036792;28;20453;-73
2020/12/15 07:55:01;;;;;;;8.43;6.70;;;10.20;93.30;;;;;;5036701;28;20451;-73
2020/12/15 07:57:32;;;;;;;8.07;7.27;;;10.20;93.30;;;;;;5036362;28;20944;-73
2020/12/15 07:59:59;;;;;;;8.70;7.60;;;10.20;93.30;;;;;;5036859;28;20501;-73
2020/12/15 08:02:26;;;;;;;8.77;7.40;;;10.20;93.20;;;;;;5036520;28;20447;-73
2020/12/15 08:05:04;;;;;;;9.80;7.43;;;10.30;93.20;;;;;;5036231;28;20816;-73
2020/12/15 08:07:30;;;;;;;8.00;7.10;;;10.30;93.10;;;;;;5036141;28;20426;-73
2020/12/15 08:09:59;;;;;;;12.77;8.73;;;10.30;93.10;;;;;;5036354;28;20524;-73
2020/12/15 08:12:28;;;;;;;11.13;8.23;;;10.30;93.10;;;;;;5036353;28;20449;-73
2020/12/15 08:14:54;;;;;;;11.20;9.03;;;10.30;93.10;;;;;;5036053;28;20504;-73
2020/12/15 08:17:23;;;;;;;13.40;11.40;;;10.30;93.10;;;;;;5036307;28;20438;-73
2020/12/15 08:19:50;;;;;;;11.23;9.23;;;10.30;93.20;;;;;;5036393;28;20462;-73
2020/12/15 08:22:18;;;;;;;12.30;9.83;;;10.40;93.30;;;;;;5035922;28;20442;-73
2020/12/15 08:24:50;;;;;;;10.87;9.27;;;10.40;93.40;;;;;;5036986;28;20462;-73
2020/12/15 08:27:16;;;;;;;13.57;9.00;;;10.40;93.50;;;;;;5036033;28;20951;-73
2020/12/15 08:29:42;;;;;;;13.53;7.57;;;10.40;93.50;;;;;;5035998;28;20462;-73
2020/12/15 08:32:09;;;;;;;9.37;8.03;;;10.40;93.60;;;;;;5036139;28;20493;-73
2020/12/15 08:34:35;;;;;;;9.57;7.90;;;10.40;93.60;;;;;;5035973;28;20486;-73
2020/12/15 08:37:03;;;;;;;7.80;7.03;;;10.50;93.70;;;;;;5035636;28;20481;-73
2020/12/15 08:39:30;;;;;;;8.40;7.50;;;10.50;93.80;;;;;;5035807;28;20474;-73
2020/12/15 08:41:58;;;;;;;13.00;8.10;;;10.50;93.70;;;;;;5035869;28;20489;-73
2020/12/15 08:44:26;;;;;;;9.63;7.33;;;10.60;93.70;;;;;;5035769;28;20500;-73
2020/12/15 08:46:54;;;;;;;10.00;8.40;;;10.60;93.60;;;;;;5035753;28;20463;-73
2020/12/15 08:49:22;;;;;;;11.37;8.30;;;10.70;93.60;;;;;;5035800;28;20469;-73
2020/12/15 08:51:52;;;;;;;10.73;8.03;;;10.70;93.50;;;;;;5035639;28;20481;-74
2020/12/15 08:54:20;;;;;;;11.93;7.87;;;10.80;93.40;;;;;;5035752;28;20441;-73
2020/12/15 08:56:46;;;;;;;12.60;7.50;;;10.90;93.30;;;;;;5035640;28;20474;-73
2020/12/15 08:59:14;;;;;;;10.93;8.17;;;10.90;93.20;;;;;;5035434;28;20474;-74
2020/12/15 09:01:41;;;;;;;11.30;8.00;;;10.90;93.10;;;;;;5036018;28;20447;-73
2020/12/15 09:04:07;;;;;;;9.80;7.63;;;10.90;93.00;;;;;;5035487;28;20804;-73
2020/12/15 09:06:34;;;;;;;9.17;7.67;;;11.00;93.00;;;;;;5035463;28;20864;-73
2020/12/15 09:09:01;;;;;;;10.90;7.90;;;11.00;92.90;;;;;;5035295;28;20473;-73
2020/12/15 09:11:28;;;;;;;10.80;7.97;;;11.00;92.90;;;;;;5035350;28;20463;-73
2020/12/15 09:13:56;;;;;;;13.00;7.63;;;11.00;93.20;;;;;;5035552;28;20426;-74
2020/12/15 09:16:32;;;;;;;12.67;10.30;;;11.10;92.80;;;;;;5035267;28;20437;-73
2020/12/15 09:19:09;;;;;;;9.53;7.83;;;11.10;92.80;;;;;;5035222;28;20554;-74
2020/12/15 09:21:35;;;;;;;11.70;8.20;;;11.00;92.80;;;;;;5034847;28;20916;-73
2020/12/15 09:24:01;;;;;;;10.67;8.00;;;11.10;92.80;;;;;;5035270;28;20435;-73
2020/12/15 09:26:29;;;;;;;11.23;7.77;;;11.10;92.80;;;;;;5035119;28;20465;-73
2020/12/15 09:29:05;;;;;;;9.97;7.97;;;11.10;92.70;;;;;;5034950;28;20604;-73
2020/12/15 09:31:33;;;;;;;13.17;8.23;;;11.10;92.60;;;;;;5034632;28;20960;-73
2020/12/15 09:33:59;;;;;;;8.93;8.03;;;11.10;92.70;;;;;;5034084;28;20489;-73
2020/12/15 09:36:26;;;;;;;9.33;8.10;;;11.10;92.60;;;;;;5034473;28;20465;-73
2020/12/15 09:38:52;;;;;;;9.23;8.23;;;11.20;92.70;;;;;;5034736;28;20867;-74
2020/12/15 09:41:19;;;;;;;8.83;7.63;;;11.20;92.70;;;;;;5034666;28;20450;-72
2020/12/15 09:43:46;;;;;;;7.97;7.10;;;11.20;92.70;;;;;;5034678;28;20521;-72
2020/12/15 09:46:12;;;;;;;8.30;6.20;;;11.20;92.70;;;;;;5034715;28;20801;-73
2020/12/15 09:48:38;;;;;;;9.10;7.00;;;11.20;92.70;;;;;;5034812;28;20462;-73
2020/12/15 09:51:04;;;;;;;10.00;7.37;;;11.30;92.80;;;;;;5034247;28;20991;-73
2020/12/15 09:53:31;;;;;;;10.60;7.87;;;11.20;92.70;;;;;;5034423;28;20451;-73
2020/12/15 09:55:58;;;;;;;9.13;7.00;;;11.30;92.80;;;;;;5034427;28;20492;-73
2020/12/15 09:58:26;;;;;;;10.17;8.90;;;11.40;92.80;;;;;;5034346;28;20451;-73
2020/12/15 10:00:53;;;;;;;8.03;6.90;;;11.40;92.80;;;;;;5034050;28;20985;-73
2020/12/15 10:03:20;;;;;;;9.17;8.33;;;11.40;92.80;;;;;;5034313;28;20454;-73
2020/12/15 10:05:46;;;;;;;11.30;8.37;;;11.50;92.90;;;;;;5034360;28;20834;-73
2020/12/15 10:08:12;;;;;;;11.60;8.40;;;11.50;92.90;;;;;;5034187;28;20439;-73
2020/12/15 10:10:40;;;;;;;10.37;8.37;;;11.60;92.90;;;;;;5034253;28;20517;-73
2020/12/15 10:13:06;;;;;;;11.90;7.90;;;11.60;92.90;;;;;;5034217;28;20450;-73
2020/12/15 10:15:32;;;;;;;10.37;8.60;;;11.60;92.80;;;;;;5034144;28;20481;-73
2020/12/15 10:18:01;;;;;;;11.80;9.10;;;11.70;92.90;;;;;;5034034;28;20447;-73
2020/12/15 10:20:27;;;;;;;9.00;8.10;;;11.70;92.90;;;;;;5033650;28;20976;-73
2020/12/15 10:22:53;;;;;;;9.60;8.00;;;11.70;92.80;;;;;;5034268;28;20426;-73
2020/12/15 10:25:20;;;;;;;11.03;8.77;;;11.70;92.70;;;;;;5033610;28;20445;-73
2020/12/15 10:27:46;;;;;;;17.33;10.10;;;11.70;92.60;;;;;;5033555;28;20457;-73
2020/12/15 10:30:13;;;;;;;10.20;7.97;;;11.70;92.50;;;;;;5033741;28;20520;-73
2020/12/15 10:32:39;;;;;;;11.50;9.30;;;11.70;92.40;;;;;;5033866;28;20461;-73
2020/12/15 10:35:06;;;;;;;9.63;8.07;;;11.70;92.20;;;;;;5033329;28;20450;-73
2020/12/15 10:37:32;;;;;;;11.73;8.80;;;11.80;92.10;;;;;;5033823;28;20434;-73
2020/12/15 10:40:00;;;;;;;9.50;8.23;;;11.80;92.00;;;;;;5033696;28;20832;-73
2020/12/15 10:42:27;;;;;;;9.70;8.70;;;11.80;91.90;;;;;;5033802;28;20550;-73
2020/12/15 10:44:53;;;;;;;10.30;9.20;;;11.80;92.00;;;;;;5033533;28;20525;-73
2020/12/15 10:47:19;;;;;;;9.77;8.50;;;11.80;92.00;;;;;;5034436;28;20784;-73
2020/12/15 10:49:46;;;;;;;10.97;8.90;;;11.80;92.00;;;;;;5033552;28;20509;-73
2020/12/15 10:52:13;;;;;;;10.40;8.80;;;11.80;92.00;;;;;;5033514;28;20466;-74
2020/12/15 10:54:39;;;;;;;11.03;9.23;;;11.80;92.10;;;;;;5033207;28;20446;-74
2020/12/15 10:57:05;;;;;;;11.47;8.60;;;11.80;92.10;;;;;;5033643;28;20423;-73
2020/12/15 10:59:32;;;;;;;11.13;9.93;;;11.80;92.50;;;;;;5033373;28;20470;-74
2020/12/15 11:01:58;;;;;;;10.30;9.03;;;11.80;92.30;;;;;;5033192;28;20431;-73
2020/12/15 11:04:24;;;;;;;11.37;9.33;;;11.80;92.40;;;;;;5033740;28;20450;-73
2020/12/15 11:06:50;;;;;;;11.00;8.40;;;11.80;92.40;;;;;;5033120;28;20907;-73
2020/12/15 11:09:17;;;;;;;9.83;8.77;;;11.80;92.50;;;;;;5033412;28;20473;-73
2020/12/15 11:11:46;;;;;;;10.07;9.10;;;11.70;92.50;;;;;;5034114;28;20832;-73
2020/12/15 11:14:12;;;;;;;10.33;9.23;;;11.80;92.60;;;;;;5033409;28;20453;-73
2020/12/15 11:16:38;;;;;;;11.63;9.77;;;11.70;92.60;;;;;;5033422;28;20504;-73
2020/12/15 11:19:05;;;;;;;9.53;7.77;;;11.70;92.60;;;;;;5033308;28;20466;-73
2020/12/15 11:21:31;;;;;;;8.17;7.47;;;11.70;92.60;;;;;;5033037;28;20423;-73
2020/12/15 11:23:57;;;;;;;9.37;8.40;;;11.70;92.60;;;;;;5033224;28;20450;-73
2020/12/15 11:26:24;;;;;;;9.83;8.83;;;11.70;92.60;;;;;;5033190;28;20423;-74
2020/12/15 11:28:50;;;;;;;10.80;8.80;;;11.70;92.50;;;;;;5033067;28;20485;-73
2020/12/15 11:31:16;;;;;;;12.50;9.70;;;11.70;92.50;;;;;;5033115;28;20466;-73
2020/12/15 11:33:43;;;;;;;9.43;8.47;;;11.70;92.50;;;;;;5033147;28;20450;-73
2020/12/15 11:36:09;;;;;;;11.27;10.07;;;11.60;92.60;;;;;;5032779;28;20479;-73
2020/12/15 11:38:39;;;;;;;10.70;8.60;;;11.60;92.60;;;;;;5033026;28;20462;-73
2020/12/15 11:41:05;;;;;;;11.50;9.30;;;11.60;92.70;;;;;;5033442;28;20537;-73
2020/12/15 11:43:32;;;;;;;12.00;10.40;;;11.60;92.70;;;;;;5033108;28;20443;-73
2020/12/15 11:45:58;;;;;;;11.43;9.60;;;11.60;92.80;;;;;;5032867;28;20789;-73
2020/12/15 11:48:25;;;;;;;10.53;8.90;;;11.60;92.80;;;;;;5032935;28;20454;-73
2020/12/15 11:50:51;;;;;;;9.40;8.27;;;11.50;92.80;;;;;;5033236;28;20466;-73
2020/12/15 11:53:17;;;;;;;9.83;8.87;;;11.50;92.90;;;;;;5033003;28;20449;-73
2020/12/15 11:55:44;;;;;;;10.33;9.33;;;11.60;93.00;;;;;;5033058;28;20431;-74
2020/12/15 11:58:10;;;;;;;11.47;10.33;;;11.60;93.10;;;;;;5036488;28;20492;-73
2020/12/15 12:00:37;;;;;;;10.67;9.47;;;11.60;93.10;;;;;;5036356;28;20430;-73
2020/12/15 12:03:03;;;;;;;8.47;7.23;;;11.70;93.30;;;;;;5036683;28;20461;-73
2020/12/15 12:05:29;;;;;;;10.60;7.77;;;11.70;93.30;;;;;;5036643;28;20448;-73
2020/12/15 12:07:56;;;;;;;6.80;6.10;;;11.70;93.40;;;;;;5036234;28;20956;-73
2020/12/15 12:10:22;;;;;;;8.07;6.00;;;11.60;93.50;;;;;;5036571;28;20466;-73
2020/12/15 12:12:48;;;;;;;6.40;5.00;;;11.60;93.60;;;;;;5036438;28;20493;-73
2020/12/15 12:15:14;;;;;;;6.47;4.93;;;11.60;93.70;;;;;;5036366;28;20430;-73
2020/12/15 12:17:41;;;;;;;14.40;5.30;;;11.70;93.90;;;;;;5036366;28;20447;-73
2020/12/15 12:20:08;;;;;;;7.27;6.27;;;11.60;93.80;;;;;;5036290;28;20528;-73
2020/12/15 12:22:34;;;;;;;9.83;5.70;;;11.60;93.90;;;;;;5036226;28;20442;-73
2020/12/15 12:25:00;;;;;;;9.87;5.77;;;11.60;94.00;;;;;;5036251;28;20821;-73
2020/12/15 12:27:26;;;;;;;6.53;5.40;;;11.50;94.00;;;;;;5036233;28;20446;-73
2020/12/15 12:29:52;;;;;;;15.53;6.47;;;11.50;94.10;;;;;;5036091;28;20810;-73
2020/12/15 12:32:19;;;;;;;11.40;6.00;;;11.50;94.30;;;;;;5035747;28;20896;-73
2020/12/15 12:34:46;;;;;;;7.27;6.13;;;11.50;94.40;;;;;;5036074;28;20453;-73
2020/12/15 12:37:12;;;;;;;6.50;5.57;;;11.50;94.60;;;;;;5035697;28;20461;-73
2020/12/15 12:39:39;;;;;;;15.40;7.53;;;11.40;94.70;;;;;;5036028;28;20516;-73
2020/12/15 12:42:05;;;;;;;5.57;5.07;;;11.40;94.80;;;;;;5035875;28;20489;-74
2020/12/15 12:44:32;;;;;;;8.17;5.60;;;11.40;94.90;;;;;;5035851;28;20443;-73